Time;durP1;ratioP1;P1;durP2;ratioP2;P2;SDS_P1;SDS_P2;PMS_P1;PMS_P2;Temp;Humidity;BMP_temperature;BMP_pressure;BME280_temperature;BME280_humidity;BME280_pressure;Samples;Min_cycle;Max_cycle;Signal;HPM_P1;HPM_P2
2023/05/05 00:00:21;;;;;;;19.90;11.43;;;;;;;-145.18;100.00;46560.78;4957545;28;20058;-70
2023/05/05 00:02:47;;;;;;;16.20;9.97;;;;;;;-145.18;100.00;46558.81;4963894;28;20050;-70
2023/05/05 00:05:13;;;;;;;17.83;10.93;;;;;;;-145.18;100.00;46556.88;4961988;28;20050;-70
2023/05/05 00:07:39;;;;;;;19.40;11.87;;;;;;;-145.18;100.00;46549.06;4970049;28;20117;-70
2023/05/05 00:10:05;;;;;;;19.53;11.10;;;;;;;-145.18;100.00;46554.91;4956846;28;20110;-70
2023/05/05 00:12:30;;;;;;;16.80;10.47;;;;;;;-145.18;100.00;46549.06;4967354;28;20170;-70
2023/05/05 00:14:56;;;;;;;15.07;10.60;;;;;;;-145.18;100.00;46551.00;4956884;28;20437;-70
2023/05/05 00:17:21;;;;;;;25.00;10.27;;;;;;;-145.18;100.00;46552.97;4965526;28;20037;-70
2023/05/05 00:19:47;;;;;;;13.50;9.20;;;;;;;-145.18;100.00;46560.78;4957594;28;20027;-69
2023/05/05 00:22:12;;;;;;;14.63;9.23;;;;;;;-145.18;100.00;46609.59;4962715;28;20063;-69
2023/05/05 00:24:38;;;;;;;13.10;7.57;;;;;;;-145.18;100.00;46566.63;4954902;28;20068;-69
2023/05/05 00:27:03;;;;;;;12.77;8.03;;;;;;;-145.18;100.00;46560.78;4955946;28;20042;-69
2023/05/05 00:29:28;;;;;;;12.00;7.47;;;;;;;-145.18;100.00;46549.06;4952685;28;20082;-69
2023/05/05 00:31:55;;;;;;;13.37;8.17;;;;;;;-145.18;100.00;46554.91;4959979;28;20031;-69
2023/05/05 00:34:20;;;;;;;10.17;7.50;;;;;;;-145.18;100.00;46554.91;4968730;28;20443;-69
2023/05/05 00:36:45;;;;;;;9.67;6.97;;;;;;;-145.18;100.00;46552.97;4963218;28;20031;-70
2023/05/05 00:39:11;;;;;;;7.50;5.07;;;;;;;-145.18;100.00;46556.88;4952280;28;20035;-69
2023/05/05 00:41:36;;;;;;;7.90;5.90;;;;;;;-145.18;100.00;46551.00;4958721;28;20118;-69
2023/05/05 00:44:02;;;;;;;10.30;6.40;;;;;;;-145.18;100.00;46562.72;4959163;28;20035;-69
2023/05/05 00:46:30;;;;;;;11.23;6.63;;;;;;;-145.18;100.00;46556.88;4954156;28;20035;-69
2023/05/05 00:48:56;;;;;;;10.77;6.37;;;;;;;-145.18;100.00;46551.00;4969612;28;20121;-69
2023/05/05 00:51:23;;;;;;;9.73;6.43;;;;;;;-145.18;100.00;46552.97;4962980;28;20030;-69
2023/05/05 00:53:49;;;;;;;9.97;6.27;;;;;;;-145.18;100.00;46562.72;4933992;28;20400;-67
2023/05/05 00:56:18;;;;;;;8.00;5.63;;;;;;;-145.18;100.00;46613.50;4949578;28;20039;-67
2023/05/05 00:58:44;;;;;;;10.30;6.17;;;;;;;-145.18;100.00;46617.41;4957924;28;20039;-68
2023/05/05 01:01:12;;;;;;;10.17;6.27;;;;;;;-145.18;100.00;46635.00;4968976;28;20023;-68
2023/05/05 01:03:39;;;;;;;8.60;5.70;;;;;;;-145.18;100.00;46656.50;4963314;28;20848;-68
2023/05/05 01:06:19;;;;;;;8.97;6.30;;;;;;;-145.18;100.00;46629.13;4967173;28;20042;-68
2023/05/05 01:09:18;;;;;;;7.77;5.60;;;;;;;-145.18;100.00;46609.59;4960447;28;20035;-68
2023/05/05 01:12:00;;;;;;;8.87;4.73;;;;;;;-145.18;100.00;46556.88;4967924;28;20039;-70
2023/05/05 01:14:38;;;;;;;6.93;4.70;;;;;;;-145.18;100.00;46607.66;4951979;28;20074;-70
2023/05/05 01:17:12;;;;;;;13.50;5.63;;;;;;;-145.18;100.00;46636.94;4945115;28;20058;-69
2023/05/05 01:20:06;;;;;;;8.87;4.63;;;;;;;-145.18;100.00;46658.44;4969675;28;20055;-69
2023/05/05 01:22:42;;;;;;;9.23;4.80;;;;;;;-145.18;100.00;46672.13;4964715;28;20043;-70
2023/05/05 01:25:47;;;;;;;10.70;5.37;;;;;;;-145.18;100.00;46683.84;4953330;28;20058;-70
2023/05/05 01:28:28;;;;;;;13.77;5.23;;;;;;;-145.18;100.00;46687.75;4931900;28;20090;-70
2023/05/05 01:31:02;;;;;;;8.27;4.57;;;;;;;-145.18;100.00;46681.88;4951934;28;20512;-70
2023/05/05 01:33:33;;;;;;;6.40;4.60;;;;;;;-145.18;100.00;46679.94;4962577;28;20042;-69
2023/05/05 01:36:05;;;;;;;9.90;4.97;;;;;;;-145.18;100.00;46670.16;4969095;28;20498;-69
2023/05/05 01:38:39;;;;;;;8.87;4.57;;;;;;;-145.18;100.00;46670.16;4957200;28;20031;-69
2023/05/05 01:41:22;;;;;;;9.87;5.13;;;;;;;-145.18;100.00;46670.16;4951515;28;20063;-69
2023/05/05 01:43:50;;;;;;;7.60;5.23;;;;;;;-145.18;100.00;46668.22;4964776;28;20033;-69
2023/05/05 01:46:17;;;;;;;8.63;4.57;;;;;;;-145.18;100.00;46668.22;4957270;28;20532;-69
2023/05/05 01:48:45;;;;;;;6.20;4.73;;;;;;;-145.18;100.00;46666.25;4965868;28;20071;-69
2023/05/05 01:51:12;;;;;;;9.80;4.97;;;;;;;-145.18;100.00;46670.16;4961150;28;20098;-69
2023/05/05 01:53:38;;;;;;;7.10;4.33;;;;;;;-145.18;100.00;46672.13;4964836;28;20042;-68
2023/05/05 01:56:05;;;;;;;5.47;3.83;;;;;;;-145.18;100.00;46668.22;4967518;28;20516;-68
2023/05/05 01:58:32;;;;;;;7.07;3.50;;;;;;;-145.18;100.00;46668.22;4965736;28;20051;-69
2023/05/05 02:03:35;;;;;;;6.88;4.10;;;;;;;-145.18;100.00;46664.31;4673423;23;20046;-70
2023/05/05 02:06:01;;;;;;;10.03;5.03;;;;;;;-145.18;100.00;46664.31;4974544;28;20043;-70
2023/05/05 02:08:28;;;;;;;8.83;4.93;;;;;;;-145.18;100.00;46666.25;4973582;28;20085;-70
2023/05/05 02:10:54;;;;;;;8.07;4.30;;;;;;;-145.18;100.00;46662.34;4974508;28;20093;-70
2023/05/05 02:13:22;;;;;;;9.40;5.33;;;;;;;-145.18;100.00;46658.44;4974451;28;20117;-70
2023/05/05 02:15:48;;;;;;;10.10;4.97;;;;;;;-145.18;100.00;46656.50;4955351;28;20031;-70
2023/05/05 02:18:14;;;;;;;9.80;4.50;;;;;;;-145.18;100.00;46650.63;4955025;29;20192;-70
2023/05/05 02:20:40;;;;;;;6.17;3.97;;;;;;;-145.18;100.00;46658.44;4954796;29;20126;-71
2023/05/05 02:23:07;;;;;;;6.50;4.10;;;;;;;-145.18;100.00;46654.53;4955160;29;20031;-70
2023/05/05 02:25:44;;;;;;;9.77;3.80;;;;;;;-145.18;100.00;46652.59;4971150;28;20043;-70
2023/05/05 02:28:17;;;;;;;6.27;3.27;;;;;;;-145.18;100.00;46654.53;4974195;28;20488;-70
2023/05/05 02:30:46;;;;;;;5.07;3.03;;;;;;;-145.18;100.00;46652.59;4974030;28;20031;-70
2023/05/05 02:33:15;;;;;;;5.90;3.77;;;;;;;-145.18;100.00;46650.63;4974226;28;20109;-70
2023/05/05 02:35:43;;;;;;;7.80;3.17;;;;;;;-145.18;100.00;46658.44;4956184;28;20039;-70
2023/05/05 02:38:12;;;;;;;5.47;2.70;;;;;;;-145.18;100.00;46648.69;4954744;29;20042;-70
2023/05/05 02:40:40;;;;;;;6.70;2.60;;;;;;;-145.18;100.00;46652.59;4954822;29;20027;-70
2023/05/05 02:43:09;;;;;;;5.60;2.33;;;;;;;-145.18;100.00;46656.50;4954734;29;20484;-70
2023/05/05 02:45:35;;;;;;;7.00;2.10;;;;;;;-145.18;100.00;46650.63;4970921;28;20074;-70
2023/05/05 02:48:02;;;;;;;5.43;2.50;;;;;;;-145.18;100.00;46656.50;4973491;28;20063;-70
2023/05/05 02:50:29;;;;;;;4.43;2.67;;;;;;;-145.18;100.00;46652.59;4974034;28;20442;-70
2023/05/05 02:52:55;;;;;;;7.00;2.53;;;;;;;-145.18;100.00;46650.63;4954404;28;20039;-70
2023/05/05 02:55:20;;;;;;;4.43;2.13;;;;;;;-145.18;100.00;46654.53;4969405;28;20039;-70
2023/05/05 02:57:59;;;;;;;4.97;2.23;;;;;;;-145.18;100.00;46652.59;4973337;28;20114;-70
2023/05/05 03:00:35;;;;;;;5.87;2.60;;;;;;;-145.18;100.00;46650.63;4973763;28;20654;-70
2023/05/05 03:03:17;;;;;;;6.40;2.60;;;;;;;-145.18;100.00;46658.44;4973135;28;20051;-70
2023/05/05 03:06:19;;;;;;;4.10;2.87;;;;;;;-145.18;100.00;46658.44;4954593;28;20039;-70
2023/05/05 03:08:55;;;;;;;6.10;2.27;;;;;;;-145.18;100.00;46654.53;4953846;29;20066;-70
2023/05/05 03:11:30;;;;;;;6.88;2.50;;;;;;;-145.18;100.00;46650.63;4954418;29;20023;-70
2023/05/05 03:14:06;;;;;;;4.18;2.20;;;;;;;-145.18;100.00;46654.53;4956524;28;20035;-70
2023/05/05 03:16:34;;;;;;;6.65;2.90;;;;;;;-145.18;100.00;46652.59;4954353;29;20097;-70
2023/05/05 03:19:01;;;;;;;6.50;2.47;;;;;;;-145.18;100.00;46648.69;4953455;29;20468;-70
2023/05/05 03:21:26;;;;;;;5.37;2.73;;;;;;;-145.18;100.00;46654.53;4954352;29;20023;-70
2023/05/05 03:23:52;;;;;;;5.00;2.87;;;;;;;-145.18;100.00;46646.72;4957034;28;20066;-70
2023/05/05 03:26:17;;;;;;;4.33;2.77;;;;;;;-145.18;100.00;46646.72;4973001;28;20476;-71
2023/05/05 03:28:43;;;;;;;6.93;3.27;;;;;;;-145.18;100.00;46681.88;4954798;28;20047;-71
2023/05/05 03:31:08;;;;;;;5.13;3.00;;;;;;;-145.18;100.00;46648.69;4973422;28;20066;-71
2023/05/05 03:33:34;;;;;;;4.90;3.30;;;;;;;-145.18;100.00;46677.97;4971707;28;20053;-70
2023/05/05 03:35:59;;;;;;;4.03;2.70;;;;;;;-145.18;100.00;46644.78;4953451;29;20074;-70
2023/05/05 03:38:25;;;;;;;4.20;2.53;;;;;;;-145.18;100.00;46646.72;4953591;29;20122;-70
2023/05/05 03:40:50;;;;;;;5.20;3.37;;;;;;;-145.18;100.00;46646.72;4953683;28;20512;-70
2023/05/05 03:43:15;;;;;;;7.87;2.80;;;;;;;-145.18;100.00;46644.78;4953401;29;20468;-70
2023/05/05 03:45:41;;;;;;;5.77;3.30;;;;;;;-145.18;100.00;46644.78;4970856;28;20085;-71
2023/05/05 03:48:08;;;;;;;7.63;3.40;;;;;;;-145.18;100.00;46683.84;4972572;28;20464;-71
2023/05/05 03:50:33;;;;;;;4.87;3.53;;;;;;;-145.18;100.00;46648.69;4972720;28;20035;-70
2023/05/05 03:52:59;;;;;;;10.73;3.60;;;;;;;-145.18;100.00;46642.81;4972444;28;20038;-70
2023/05/05 03:55:24;;;;;;;6.77;3.60;;;;;;;-145.18;100.00;46646.72;4957644;28;20046;-70
2023/05/05 03:57:50;;;;;;;8.47;3.70;;;;;;;-145.18;100.00;46681.88;4953110;29;20090;-71
2023/05/05 04:00:15;;;;;;;5.83;3.83;;;;;;;-145.18;100.00;46652.59;4936131;29;20039;-70
2023/05/05 04:02:42;;;;;;;6.03;3.70;;;;;;;-145.18;100.00;46648.69;4952858;29;20538;-70
2023/05/05 04:05:07;;;;;;;14.13;4.43;;;;;;;-145.18;100.00;46646.72;4965546;28;20043;-70
2023/05/05 04:07:33;;;;;;;7.43;4.00;;;;;;;-145.18;100.00;46646.72;4971967;28;20459;-70
2023/05/05 04:09:58;;;;;;;6.50;3.87;;;;;;;-145.18;100.00;46652.59;4972213;28;20038;-70
2023/05/05 04:12:24;;;;;;;9.33;4.13;;;;;;;-145.18;100.00;46650.63;4972392;28;20031;-70
2023/05/05 04:14:49;;;;;;;6.30;3.23;;;;;;;-145.18;100.00;46652.59;4962101;28;20134;-70
2023/05/05 04:17:15;;;;;;;5.40;3.57;;;;;;;-145.18;100.00;46648.69;4952838;29;20050;-70
2023/05/05 04:19:40;;;;;;;7.37;4.20;;;;;;;-145.18;100.00;46644.78;4952934;29;20110;-70
2023/05/05 04:22:06;;;;;;;11.60;4.17;;;;;;;-145.18;100.00;46646.72;4955915;28;20094;-70
2023/05/05 04:24:31;;;;;;;9.70;4.17;;;;;;;-145.18;100.00;46646.72;4961664;28;20065;-70
2023/05/05 04:26:56;;;;;;;7.67;4.30;;;;;;;-145.18;100.00;46646.72;4962789;28;20038;-71
2023/05/05 04:29:22;;;;;;;12.73;4.60;;;;;;;-145.18;100.00;46652.59;4960391;28;20400;-70
2023/05/05 04:31:47;;;;;;;9.57;4.30;;;;;;;-145.18;100.00;46646.72;4964288;28;20093;-70
2023/05/05 04:34:13;;;;;;;11.83;5.50;;;;;;;-145.18;100.00;46646.72;4960095;28;20046;-71
2023/05/05 04:36:38;;;;;;;9.20;5.10;;;;;;;-145.18;100.00;46646.72;4960359;28;20423;-70
2023/05/05 04:39:05;;;;;;;9.57;5.60;;;;;;;-145.18;100.00;46648.69;4961421;28;20511;-70
2023/05/05 04:41:31;;;;;;;8.07;5.30;;;;;;;-145.18;100.00;46650.63;4961396;28;20102;-70
2023/05/05 04:43:56;;;;;;;8.30;5.07;;;;;;;-145.18;100.00;46650.63;4959243;28;20035;-70
2023/05/05 04:46:23;;;;;;;12.03;5.30;;;;;;;-145.18;100.00;46648.69;4960231;28;20031;-70
2023/05/05 04:48:49;;;;;;;11.10;5.43;;;;;;;-145.18;100.00;46646.72;4960591;28;20043;-70
2023/05/05 04:51:14;;;;;;;12.90;5.00;;;;;;;-145.18;100.00;46654.53;4956692;28;20541;-70
2023/05/05 04:53:39;;;;;;;8.63;5.10;;;;;;;-145.18;100.00;46650.63;4962472;28;20089;-70
2023/05/05 04:56:05;;;;;;;6.27;5.10;;;;;;;-145.18;100.00;46644.78;4965032;28;20050;-70
2023/05/05 04:58:30;;;;;;;7.47;5.07;;;;;;;-145.18;100.00;46646.72;4958827;28;20042;-71
2023/05/05 05:00:56;;;;;;;9.60;5.47;;;;;;;-145.18;100.00;46646.72;4951788;28;20031;-71
2023/05/05 05:03:22;;;;;;;9.93;6.07;;;;;;;-145.18;100.00;46646.72;4952070;28;20055;-70
2023/05/05 05:05:47;;;;;;;11.03;6.60;;;;;;;-145.18;100.00;46656.50;4952159;29;20039;-71
2023/05/05 05:08:15;;;;;;;9.60;6.13;;;;;;;-145.18;100.00;46652.59;4934647;29;20031;-70
2023/05/05 05:10:41;;;;;;;12.63;6.63;;;;;;;-145.18;100.00;46648.69;4952466;29;20023;-71
2023/05/05 05:13:06;;;;;;;10.57;6.43;;;;;;;-145.18;100.00;46650.63;4953826;28;20031;-71
2023/05/05 05:15:31;;;;;;;10.20;7.37;;;;;;;-145.18;100.00;46644.78;4971272;28;20045;-71
2023/05/05 05:17:57;;;;;;;13.63;7.70;;;;;;;-145.18;100.00;46648.69;4962220;28;20031;-71
2023/05/05 05:20:22;;;;;;;14.13;8.03;;;;;;;-145.18;100.00;46648.69;4952732;28;20032;-71
2023/05/05 05:22:48;;;;;;;13.27;8.10;;;;;;;-145.18;100.00;46646.72;4958901;28;20039;-72
2023/05/05 05:25:13;;;;;;;15.53;8.17;;;;;;;-145.18;100.00;46646.72;4956699;28;20558;-71
2023/05/05 05:27:38;;;;;;;16.20;8.80;;;;;;;-145.18;100.00;46640.88;4967290;28;20427;-71
2023/05/05 05:30:04;;;;;;;13.60;8.70;;;;;;;-145.18;100.00;46652.59;4975188;28;20090;-72
2023/05/05 05:32:30;;;;;;;14.27;8.83;;;;;;;-145.18;100.00;46642.81;4957605;28;20033;-71
2023/05/05 05:34:55;;;;;;;12.23;8.50;;;;;;;-145.18;100.00;46648.69;4975019;28;20484;-71
2023/05/05 05:37:21;;;;;;;13.37;8.97;;;;;;;-145.18;100.00;46646.72;4960820;28;20045;-72
2023/05/05 05:39:52;;;;;;;14.73;8.90;;;;;;;-145.18;100.00;46648.69;4955739;29;20062;-71
2023/05/05 05:42:17;;;;;;;12.53;8.57;;;;;;;-145.18;100.00;46644.78;4955585;29;20500;-71
2023/05/05 05:44:42;;;;;;;12.80;8.53;;;;;;;-145.18;100.00;46648.69;4955523;29;20036;-72
2023/05/05 05:47:08;;;;;;;17.47;9.97;;;;;;;-145.18;100.00;46644.78;4969597;28;20038;-72
2023/05/05 05:49:33;;;;;;;17.73;10.60;;;;;;;-145.18;100.00;46644.78;4975091;28;20047;-71
2023/05/05 05:51:59;;;;;;;20.47;9.70;;;;;;;-145.18;100.00;46638.91;4960616;28;20063;-71
2023/05/05 05:54:24;;;;;;;14.53;9.70;;;;;;;-145.18;100.00;46642.81;4955364;29;20047;-72
2023/05/05 05:56:49;;;;;;;17.80;10.73;;;;;;;-145.18;100.00;46644.78;4956421;28;20102;-72
2023/05/05 05:59:15;;;;;;;14.30;8.93;;;;;;;-145.18;100.00;46642.81;4974136;28;20039;-71
2023/05/05 06:01:40;;;;;;;16.67;10.10;;;;;;;-145.18;100.00;46644.78;4966257;28;20038;-71
2023/05/05 06:04:05;;;;;;;17.67;10.50;;;;;;;-145.18;100.00;46642.81;4959990;28;20038;-72
2023/05/05 06:06:31;;;;;;;15.67;10.87;;;;;;;-145.18;100.00;46642.81;4971488;28;20157;-72
2023/05/05 06:08:56;;;;;;;17.17;10.50;;;;;;;-145.18;100.00;46642.81;4973316;28;20169;-72
2023/05/05 06:11:21;;;;;;;15.93;10.27;;;;;;;-145.18;100.00;46638.91;4940945;28;20149;-72
2023/05/05 06:13:47;;;;;;;19.03;10.93;;;;;;;-145.18;100.00;46640.88;4968327;28;20043;-71
2023/05/05 06:16:12;;;;;;;18.40;10.57;;;;;;;-145.18;100.00;46644.78;4961632;28;20035;-71
2023/05/05 06:18:38;;;;;;;18.87;11.27;;;;;;;-145.18;100.00;46648.69;4966049;28;20546;-71
2023/05/05 06:21:03;;;;;;;18.13;11.70;;;;;;;-145.18;100.00;46646.72;4974222;28;20050;-71
2023/05/05 06:23:28;;;;;;;18.57;11.63;;;;;;;-145.18;100.00;46640.88;4973924;28;20555;-71
2023/05/05 06:25:54;;;;;;;20.83;11.43;;;;;;;-145.18;100.00;46646.72;4964761;28;20046;-72
2023/05/05 06:28:20;;;;;;;19.20;11.97;;;;;;;-145.18;100.00;46644.78;4973317;28;20033;-71
2023/05/05 06:30:45;;;;;;;18.10;11.70;;;;;;;-145.18;100.00;46640.88;4973697;28;20089;-72
2023/05/05 06:33:10;;;;;;;19.87;11.47;;;;;;;-145.18;100.00;46644.78;4973728;28;20031;-71
2023/05/05 06:35:36;;;;;;;16.73;11.33;;;;;;;-145.18;100.00;46652.59;4969306;28;20514;-71
2023/05/05 06:38:01;;;;;;;26.37;10.97;;;;;;;-145.18;100.00;46648.69;4937418;29;20118;-71
2023/05/05 06:40:26;;;;;;;21.47;11.73;;;;;;;-145.18;100.00;46646.72;4954959;29;20106;-71
2023/05/05 06:42:52;;;;;;;18.53;9.93;;;;;;;-145.18;100.00;46650.63;4956733;28;20459;-71
2023/05/05 06:45:17;;;;;;;16.13;11.07;;;;;;;-145.18;100.00;46656.50;4968321;28;20027;-71
2023/05/05 06:47:43;;;;;;;17.37;11.03;;;;;;;-145.18;100.00;46658.44;4973314;28;20031;-71
2023/05/05 06:50:08;;;;;;;16.30;10.43;;;;;;;-145.18;100.00;46664.31;4973989;28;20530;-71
2023/05/05 06:52:34;;;;;;;17.53;10.40;;;;;;;-145.18;100.00;46656.50;4973211;28;20043;-71
2023/05/05 06:54:59;;;;;;;18.37;11.20;;;;;;;-145.18;100.00;46660.41;4973527;28;20396;-72
2023/05/05 06:57:25;;;;;;;16.93;10.10;;;;;;;-145.18;100.00;46662.34;4954909;28;20035;-72
2023/05/05 06:59:50;;;;;;;14.80;10.27;;;;;;;-145.18;100.00;46664.31;4954288;28;20513;-72
2023/05/05 07:02:16;;;;;;;15.00;10.33;;;;;;;-145.18;100.00;46662.34;4954200;28;20058;-72
2023/05/05 07:04:42;;;;;;;16.70;10.20;;;;;;;-145.18;100.00;46664.31;4964817;28;20031;-71
2023/05/05 07:07:08;;;;;;;15.20;11.00;;;;;;;-145.18;100.00;46664.31;4958334;28;20023;-71
2023/05/05 07:09:33;;;;;;;14.10;9.83;;;;;;;-145.18;100.00;46666.25;4953973;29;20078;-72
2023/05/05 07:11:58;;;;;;;17.07;11.07;;;;;;;-145.18;100.00;46660.41;4954121;29;20059;-72
2023/05/05 07:14:24;;;;;;;13.30;9.60;;;;;;;-145.18;100.00;46658.44;4972313;28;20038;-72
2023/05/05 07:16:49;;;;;;;19.07;10.27;;;;;;;-145.18;100.00;46658.44;4972435;28;20041;-72
2023/05/05 07:19:15;;;;;;;16.07;9.97;;;;;;;-145.18;100.00;46648.69;4972876;28;20042;-71
2023/05/05 07:21:40;;;;;;;16.23;10.10;;;;;;;-145.18;100.00;46638.91;4973386;28;20089;-72
2023/05/05 07:24:06;;;;;;;15.60;10.03;;;;;;;-145.18;100.00;46636.94;4972493;28;20487;-72
2023/05/05 07:26:31;;;;;;;16.80;9.50;;;;;;;-145.18;100.00;46636.94;4958957;28;20043;-72
2023/05/05 07:28:57;;;;;;;14.73;10.57;;;;;;;-145.18;100.00;46629.13;4972595;28;20063;-72
2023/05/05 07:31:24;;;;;;;15.87;10.20;;;;;;;-145.18;100.00;46586.16;4973293;28;20035;-71
2023/05/05 07:33:50;;;;;;;13.47;9.20;;;;;;;-145.18;100.00;46588.13;4972207;28;20480;-72
2023/05/05 07:36:19;;;;;;;15.87;9.37;;;;;;;-145.18;100.00;46554.91;4968331;28;20035;-72
2023/05/05 07:38:44;;;;;;;13.97;9.90;;;;;;;-145.18;100.00;46533.44;4936607;29;20062;-72
2023/05/05 07:41:11;;;;;;;14.33;9.43;;;;;;;-145.18;100.00;46525.63;4953590;28;20098;-72
2023/05/05 07:43:39;;;;;;;16.07;9.90;;;;;;;-145.18;100.00;46529.53;4951254;28;20034;-72
2023/05/05 07:46:05;;;;;;;15.80;9.50;;;;;;;-145.18;100.00;46531.47;4953398;28;20466;-72
2023/05/05 07:48:30;;;;;;;16.90;9.37;;;;;;;-145.18;100.00;46533.44;4957191;28;20039;-72
2023/05/05 07:50:56;;;;;;;14.27;8.67;;;;;;;-145.18;100.00;46537.34;4959126;28;20036;-72
2023/05/05 07:53:21;;;;;;;18.57;10.60;;;;;;;-145.18;100.00;46543.19;4934338;28;20035;-71
2023/05/05 07:55:46;;;;;;;13.60;8.77;;;;;;;-145.18;100.00;46543.19;4942519;28;20031;-70
2023/05/05 07:58:12;;;;;;;13.47;8.87;;;;;;;-145.18;100.00;46549.06;4959779;28;20142;-71
2023/05/05 08:00:38;;;;;;;13.60;8.77;;;;;;;-145.18;100.00;46541.25;4954814;28;20491;-71
2023/05/05 08:03:03;;;;;;;13.07;8.80;;;;;;;-145.18;100.00;46543.19;4953975;28;20428;-71
2023/05/05 08:05:29;;;;;;;11.97;7.47;;;;;;;-145.18;100.00;46549.06;4952401;29;20028;-71
2023/05/05 08:07:54;;;;;;;15.87;7.67;;;;;;;-145.18;100.00;46549.06;4943549;28;20053;-71
2023/05/05 08:10:21;;;;;;;11.37;5.97;;;;;;;-145.18;100.00;46543.19;4962098;28;20029;-71
2023/05/05 08:12:46;;;;;;;10.30;5.57;;;;;;;-145.18;100.00;46539.28;4961753;28;20019;-71
2023/05/05 08:15:12;;;;;;;13.17;6.90;;;;;;;-145.18;100.00;46547.09;4962821;28;20404;-70
2023/05/05 08:17:46;;;;;;;10.67;6.30;;;;;;;-145.18;100.00;46539.28;4968512;28;20034;-70
2023/05/05 08:20:11;;;;;;;10.33;6.40;;;;;;;-145.18;100.00;46537.34;4964834;28;20143;-71
2023/05/05 08:22:37;;;;;;;10.03;6.50;;;;;;;-145.18;100.00;46541.25;4955198;28;20035;-71
2023/05/05 08:25:02;;;;;;;11.27;6.90;;;;;;;-145.18;100.00;46556.88;4951852;29;20031;-71
2023/05/05 08:27:28;;;;;;;10.87;7.40;;;;;;;-145.18;100.00;46551.00;4951305;28;20039;-71
2023/05/05 08:29:53;;;;;;;11.47;7.20;;;;;;;-145.18;100.00;46556.88;4954306;28;20054;-71
2023/05/05 08:32:18;;;;;;;14.90;8.07;;;;;;;-145.18;100.00;46551.00;4951695;29;20060;-71
2023/05/05 08:34:44;;;;;;;15.23;8.57;;;;;;;-145.18;100.00;46549.06;4951507;28;20524;-71
2023/05/05 08:37:10;;;;;;;12.80;6.27;;;;;;;-145.18;100.00;46547.09;4951830;28;20078;-71
2023/05/05 08:39:35;;;;;;;6.03;3.80;;;;;;;-145.18;100.00;46558.81;4951526;28;20078;-71
2023/05/05 08:42:02;;;;;;;6.53;3.47;;;;;;;-145.18;100.00;46566.63;4952263;29;20105;-71
2023/05/05 08:44:27;;;;;;;5.67;2.57;;;;;;;-145.18;100.00;46566.63;4960818;28;20046;-71
2023/05/05 08:46:53;;;;;;;6.03;2.87;;;;;;;-145.18;100.00;46590.06;4954132;28;20030;-71
2023/05/05 08:49:20;;;;;;;6.13;3.37;;;;;;;-145.18;100.00;46599.84;4969953;28;20035;-71
2023/05/05 08:51:46;;;;;;;9.27;4.20;;;;;;;-145.18;100.00;46623.28;4969556;28;20039;-71
2023/05/05 08:54:17;;;;;;;6.67;4.20;;;;;;;-145.18;100.00;46568.59;4969252;28;20065;-71
2023/05/05 08:56:45;;;;;;;6.17;4.40;;;;;;;-145.18;100.00;46551.00;4969261;28;20039;-71
2023/05/05 08:59:12;;;;;;;10.17;4.60;;;;;;;-145.18;100.00;46549.06;4969025;28;20038;-71
2023/05/05 09:01:40;;;;;;;11.13;4.47;;;;;;;-145.18;100.00;46551.00;4955841;28;20093;-71
2023/05/05 09:04:07;;;;;;;14.80;6.53;;;;;;;-145.18;100.00;46552.97;4950245;28;20051;-71
2023/05/05 09:06:33;;;;;;;9.07;6.47;;;;;;;-145.18;100.00;46549.06;4952350;28;20058;-71
2023/05/05 09:08:59;;;;;;;12.50;6.43;;;;;;;-145.18;100.00;46552.97;4934382;29;20129;-71
2023/05/05 09:11:25;;;;;;;10.57;5.90;;;;;;;-145.18;100.00;46551.00;4952034;29;20118;-71
2023/05/05 09:13:50;;;;;;;11.10;6.43;;;;;;;-145.18;100.00;46549.06;4951912;28;20090;-71
2023/05/05 09:16:15;;;;;;;14.07;7.27;;;;;;;-145.18;100.00;46566.63;4952352;28;20035;-71
2023/05/05 09:18:41;;;;;;;10.17;7.10;;;;;;;-145.18;100.00;46562.72;4953358;28;20043;-71
2023/05/05 09:21:24;;;;;;;10.37;6.80;;;;;;;-145.18;100.00;46576.41;4969770;28;20104;-71
2023/05/05 09:24:03;;;;;;;14.97;6.87;;;;;;;-145.18;100.00;46607.66;4970875;28;20042;-71
2023/05/05 09:26:32;;;;;;;10.03;6.60;;;;;;;-145.18;100.00;46599.84;4961431;28;20035;-71
2023/05/05 09:28:57;;;;;;;9.77;6.23;;;;;;;-145.18;100.00;46619.38;4951491;28;20432;-71
2023/05/05 09:31:23;;;;;;;9.60;5.10;;;;;;;-145.18;100.00;46586.16;4951809;29;20058;-71
2023/05/05 09:33:48;;;;;;;6.20;2.27;;;;;;;-145.18;100.00;46568.59;4951479;28;20047;-71
2023/05/05 09:36:14;;;;;;;2.83;1.33;;;;;;;-145.18;100.00;46564.69;4952313;28;20043;-71
2023/05/05 09:38:39;;;;;;;3.93;2.03;;;;;;;-145.18;100.00;46570.53;4951664;28;20097;-71
2023/05/05 09:41:05;;;;;;;3.20;1.10;;;;;;;-145.18;100.00;46560.78;4951686;29;20159;-72
2023/05/05 09:43:48;;;;;;;3.23;1.57;;;;;;;-145.18;100.00;46545.16;4951477;28;20067;-71
2023/05/05 09:46:14;;;;;;;3.50;2.50;;;;;;;-145.18;100.00;46580.31;4952198;28;20045;-71
2023/05/05 09:48:39;;;;;;;6.50;2.50;;;;;;;-145.18;100.00;46676.03;4951467;28;20047;-71
2023/05/05 09:51:04;;;;;;;4.57;1.77;;;;;;;-145.18;100.00;46687.75;4951413;29;20456;-71
2023/05/05 09:53:40;;;;;;;4.63;2.23;;;;;;;-145.18;100.00;46681.88;4951571;28;20555;-71
2023/05/05 09:56:06;;;;;;;7.33;1.90;;;;;;;-145.18;100.00;46670.16;4952105;28;20074;-71
2023/05/05 09:58:32;;;;;;;6.23;2.63;;;;;;;-145.18;100.00;46664.31;4951458;28;20094;-70
2023/05/05 10:00:58;;;;;;;8.87;1.90;;;;;;;-145.18;100.00;46654.53;4951249;29;20492;-70
2023/05/05 10:03:24;;;;;;;3.20;2.03;;;;;;;-145.18;100.00;46662.34;4951535;28;20055;-70
2023/05/05 10:05:52;;;;;;;4.87;2.10;;;;;;;-145.18;100.00;46654.53;4954391;28;20066;-70
2023/05/05 10:08:19;;;;;;;4.40;2.17;;;;;;;-145.18;100.00;46650.63;4955181;28;20395;-71
2023/05/05 10:10:50;;;;;;;6.33;1.70;;;;;;;-145.18;100.00;46642.81;4963117;28;20039;-71
2023/05/05 10:13:18;;;;;;;4.93;2.30;;;;;;;-145.18;100.00;46646.72;4974322;28;20046;-69
2023/05/05 10:15:44;;;;;;;7.63;1.90;;;;;;;-145.18;100.00;46648.69;4968294;28;20089;-71
2023/05/05 10:18:13;;;;;;;5.70;1.70;;;;;;;-145.18;100.00;46646.72;4967354;28;20424;-71
2023/05/05 10:20:42;;;;;;;5.53;1.83;;;;;;;-145.18;100.00;46644.78;4974115;28;20042;-71
2023/05/05 10:23:10;;;;;;;5.03;1.67;;;;;;;-145.18;100.00;46642.81;4967603;28;20054;-71
2023/05/05 10:25:43;;;;;;;2.87;1.53;;;;;;;-145.18;100.00;46642.81;4955471;28;20061;-72
2023/05/05 10:28:15;;;;;;;3.47;1.30;;;;;;;-145.18;100.00;46644.78;4957054;28;20041;-71
2023/05/05 10:30:45;;;;;;;4.53;1.70;;;;;;;-145.18;100.00;46677.97;4973725;28;20487;-71
2023/05/05 10:33:34;;;;;;;4.43;1.57;;;;;;;-145.18;100.00;46679.94;4973242;28;20086;-71
2023/05/05 10:36:02;;;;;;;8.30;1.90;;;;;;;-145.18;100.00;46644.78;4972676;28;20039;-72
2023/05/05 10:38:31;;;;;;;6.43;1.77;;;;;;;-145.18;100.00;46677.97;4973777;28;20060;-72
2023/05/05 10:40:58;;;;;;;2.63;1.53;;;;;;;-145.18;100.00;46646.72;4954485;29;20122;-73
2023/05/05 10:43:24;;;;;;;2.73;1.50;;;;;;;-145.18;100.00;46642.81;4967887;28;20094;-73
2023/05/05 10:45:50;;;;;;;4.97;1.57;;;;;;;-145.18;100.00;46638.91;4972150;28;20116;-73
2023/05/05 10:48:26;;;;;;;5.00;1.90;;;;;;;-145.18;100.00;46644.78;4973388;28;20511;-73
2023/05/05 10:50:55;;;;;;;;;;;;;;;-145.18;100.00;46642.81;4968274;28;20035;-74
2023/05/05 10:53:56;;;;;;;5.03;1.93;;;;;;;-145.18;100.00;46640.88;4958870;28;19922;-73
2023/05/05 10:56:31;;;;;;;5.47;1.73;;;;;;;-145.18;100.00;46640.88;4953583;28;20042;-73
2023/05/05 10:58:57;;;;;;;4.60;1.83;;;;;;;-145.18;100.00;46644.78;4967104;28;20098;-73
2023/05/05 11:01:30;;;;;;;4.57;1.40;;;;;;;-145.18;100.00;46648.69;4963380;28;20496;-74
2023/05/05 11:04:19;;;;;;;9.30;2.00;;;;;;;-145.18;100.00;46646.72;4960646;28;20138;-74
2023/05/05 11:07:09;;;;;;;3.77;1.97;;;;;;;-145.18;100.00;46646.72;4956102;28;20054;-74
2023/05/05 11:09:41;;;;;;;8.23;2.10;;;;;;;-145.18;100.00;46644.78;4979529;28;20039;-74